Terminal Aerodrome Forecast
Issued by NWS

Current Version | Previous Version | Text Only | Print | Product List | Glossary On
Versions: 1 2 3 4 5 6 7 8 9 10 11 12 13 14 15
000
FTUS44 KLZK 011100 AAA
TAFPBF
TAF AMD
KPBF 011147Z 0112/0212 18012G20KT 6SM -RA SCT015 OVC030
      WS020/20050KT
      TEMPO 0112/0116 4SM RA BR BKN015
     FM011600 23014G22KT P6SM OVC020
      TEMPO 0116/0120 5SM -RA BR SCT025 BKN050
     FM012100 28014G24KT P6SM VCSH SCT030 BKN060
     FM020300 31012G22KT P6SM SCT060 SCT250=

USA.gov is the U.S. government's official web portal to all federal, state and local government web resources and services.